Weather at Jinnah International Airport

Public forecast

Using degrees Celsius for public forecast. Weather courtesy of forecast.io.

Current aviation weather report (METAR) for Jinnah International Airport

Retrieved 2020/10/30 03:30 UTC (13 minutes ago):

OPKC 300330Z 00000KT 2500 FU NSC 23/18 Q1015 TEMPO 3000 FU

Aviation forecast (TAF) for Jinnah International Airport

Retrieved 2020-10-30 00:06 UTC (4 hours ago):

TAF OPKC 292130Z 3000/3106 25010KT 6000 NSC TEMPO 3000/3005 04005KT 1500 BR SCT020 FM301600 31007KT 4000 FU NSC TEMPO 3101/3105 04005KT 1500 BR SCT020